Time;durP1;ratioP1;P1;durP2;ratioP2;P2;SDS_P1;SDS_P2;PMS_P1;PMS_P2;Temp;Humidity;BMP_temperature;BMP_pressure;BME280_temperature;BME280_humidity;BME280_pressure;Samples;Min_cycle;Max_cycle;Signal;HPM_P1;HPM_P2
2022/07/12 00:02:04;;;;;;;1.13;0.45;;;;;;;25.26;46.23;101793.09;7387019;19;20024;-65
2022/07/12 00:04:32;;;;;;;2.67;0.50;;;;;;;25.25;47.18;101791.44;7386071;19;20014;-66
2022/07/12 00:06:59;;;;;;;2.72;0.60;;;;;;;25.24;46.60;101795.22;7385744;19;20026;-66
2022/07/12 00:09:26;;;;;;;1.40;0.70;;;;;;;25.23;46.83;101802.47;7385663;19;20028;-63
2022/07/12 00:11:52;;;;;;;1.00;0.40;;;;;;;25.22;46.82;101797.28;7386258;19;20015;-64
2022/07/12 00:14:19;;;;;;;1.63;0.43;;;;;;;25.18;46.77;101799.63;7385564;19;20032;-62
2022/07/12 00:16:46;;;;;;;2.95;0.50;;;;;;;25.19;47.12;101800.47;7384396;19;20317;-63
2022/07/12 00:19:13;;;;;;;1.17;0.50;;;;;;;25.18;47.11;101802.31;7386041;19;20018;-62
2022/07/12 00:21:40;;;;;;;1.48;0.70;;;;;;;25.18;47.03;101807.72;7383529;19;20010;-65
2022/07/12 00:24:07;;;;;;;2.17;0.40;;;;;;;25.17;47.30;101797.97;7382694;19;20018;-62
2022/07/12 00:26:34;;;;;;;1.15;0.47;;;;;;;25.16;47.64;101795.50;7384891;19;20037;-62
2022/07/12 00:29:01;;;;;;;1.02;0.50;;;;;;;25.13;48.10;101804.88;7384951;19;20019;-61
2022/07/12 00:31:28;;;;;;;1.88;0.40;;;;;;;25.10;47.94;101795.34;7384599;19;20394;-61
2022/07/12 00:33:55;;;;;;;2.05;0.47;;;;;;;25.08;47.14;101792.06;7383789;19;20451;-61
2022/07/12 00:36:22;;;;;;;1.25;0.40;;;;;;;25.08;47.57;101784.00;7381810;19;20018;-62
2022/07/12 00:38:49;;;;;;;0.90;0.38;;;;;;;25.07;47.64;101785.03;7383968;19;20025;-62
2022/07/12 00:41:16;;;;;;;2.50;0.52;;;;;;;25.04;47.52;101793.53;7384284;19;20018;-63
2022/07/12 00:43:42;;;;;;;1.13;0.40;;;;;;;25.02;47.79;101790.28;7392074;19;20313;-62
2022/07/12 00:46:09;;;;;;;0.90;0.38;;;;;;;25.01;47.71;101780.53;7399122;19;20025;-62
2022/07/12 00:48:37;;;;;;;1.33;0.40;;;;;;;25.01;47.41;101780.53;7399105;19;20477;-62
2022/07/12 00:51:04;;;;;;;1.60;0.50;;;;;;;25.01;48.26;101783.22;7397055;19;20018;-62
2022/07/12 00:53:31;;;;;;;1.75;0.50;;;;;;;25.01;47.84;101785.09;7397688;19;20014;-62
2022/07/12 00:55:59;;;;;;;1.50;0.63;;;;;;;25.00;48.32;101784.28;7397565;19;20024;-63
2022/07/12 00:58:26;;;;;;;1.58;0.50;;;;;;;24.97;48.13;101783.91;7400366;19;20018;-62
2022/07/12 01:00:58;;;;;;;1.90;0.55;;;;;;;24.95;49.11;101781.44;7397123;19;20026;-62
2022/07/12 01:03:27;;;;;;;1.17;0.50;;;;;;;24.95;48.46;101778.75;7398517;19;20074;-64
2022/07/12 01:05:54;;;;;;;3.65;0.45;;;;;;;24.94;49.29;101781.69;7397310;19;20010;-62
2022/07/12 01:08:23;;;;;;;1.77;0.45;;;;;;;24.93;49.08;101778.16;7396036;19;20014;-62
2022/07/12 01:10:50;;;;;;;1.10;0.40;;;;;;;24.91;49.06;101779.41;7398613;19;20070;-62
2022/07/12 01:13:17;;;;;;;1.70;0.40;;;;;;;24.88;49.15;101774.50;7399298;19;20053;-62
2022/07/12 01:15:46;;;;;;;2.13;0.50;;;;;;;24.87;48.72;101770.97;7395530;19;20511;-62
2022/07/12 01:18:15;;;;;;;1.55;0.50;;;;;;;24.87;48.82;101779.03;7395934;19;20014;-65
2022/07/12 01:20:43;;;;;;;2.72;0.43;;;;;;;24.86;47.94;101780.06;7398019;19;20394;-65
2022/07/12 01:23:12;;;;;;;0.95;0.45;;;;;;;24.85;48.77;101777.56;7397188;19;20014;-70
2022/07/12 01:25:39;;;;;;;2.55;0.50;;;;;;;24.85;48.36;101780.28;7394598;19;20014;-67
2022/07/12 01:28:06;;;;;;;1.88;0.50;;;;;;;24.82;48.36;101783.41;7397322;19;20018;-66
2022/07/12 01:30:33;;;;;;;1.95;0.40;;;;;;;24.80;49.02;101778.25;7396188;19;20118;-66
2022/07/12 01:33:00;;;;;;;1.35;0.40;;;;;;;24.79;48.97;101784.69;7399046;19;20114;-65
2022/07/12 01:35:28;;;;;;;0.70;0.30;;;;;;;24.77;48.49;101789.47;7394899;19;20653;-65
2022/07/12 01:37:55;;;;;;;2.78;0.50;;;;;;;24.76;49.03;101787.00;7395181;19;20023;-67
2022/07/12 01:40:23;;;;;;;2.33;0.50;;;;;;;24.72;48.32;101786.63;7393098;19;20130;-66
2022/07/12 01:42:52;;;;;;;2.05;0.40;;;;;;;24.69;48.74;101792.44;7397756;19;20010;-65
2022/07/12 01:45:20;;;;;;;1.42;0.40;;;;;;;24.64;48.81;101785.03;7397417;19;20026;-65
2022/07/12 01:47:48;;;;;;;4.35;0.60;;;;;;;24.60;48.98;101794.59;7397817;19;20019;-65
2022/07/12 01:50:16;;;;;;;1.10;0.40;;;;;;;24.59;49.63;101784.88;7390844;19;20440;-66
2022/07/12 01:52:44;;;;;;;1.70;0.50;;;;;;;24.59;49.34;101790.25;7397027;19;20014;-65
2022/07/12 01:55:11;;;;;;;1.13;0.30;;;;;;;24.57;48.96;101792.38;7391599;19;20022;-65
2022/07/12 01:57:41;;;;;;;1.05;0.40;;;;;;;24.55;48.80;101799.00;7389094;19;20028;-66
2022/07/12 02:00:09;;;;;;;0.80;0.40;;;;;;;24.53;48.59;101788.44;7389779;19;20010;-65
2022/07/12 02:02:38;;;;;;;1.10;0.50;;;;;;;24.51;49.06;101787.03;7389060;19;20031;-66
2022/07/12 02:05:05;;;;;;;1.38;0.40;;;;;;;24.49;48.82;101795.31;7388027;19;20103;-64
2022/07/12 02:07:33;;;;;;;1.13;0.40;;;;;;;24.47;48.28;101792.06;7388694;19;20326;-61
2022/07/12 02:10:00;;;;;;;0.98;0.35;;;;;;;24.47;48.88;101796.59;7388076;19;20074;-61
2022/07/12 02:12:27;;;;;;;1.83;0.57;;;;;;;24.45;49.52;101802.19;7389740;19;20018;-61
2022/07/12 02:14:54;;;;;;;2.08;0.40;;;;;;;24.44;48.59;101797.03;7387040;19;20035;-62
2022/07/12 02:17:21;;;;;;;1.23;0.32;;;;;;;24.41;48.96;101784.84;7389803;19;20018;-62
2022/07/12 02:19:47;;;;;;;1.20;0.55;;;;;;;24.39;49.06;101781.53;7388416;19;20018;-63
2022/07/12 02:22:14;;;;;;;3.83;0.40;;;;;;;24.38;49.00;101779.88;7385813;19;20014;-62
2022/07/12 02:24:41;;;;;;;0.90;0.40;;;;;;;24.38;48.93;101777.19;7388986;19;20015;-62
2022/07/12 02:27:08;;;;;;;1.63;0.40;;;;;;;24.42;48.66;101777.59;7387761;19;20018;-62
2022/07/12 02:29:35;;;;;;;1.70;0.40;;;;;;;24.41;48.35;101782.16;7389150;19;20110;-61
2022/07/12 02:32:03;;;;;;;2.03;0.30;;;;;;;24.42;48.65;101769.53;7387912;19;20014;-63
2022/07/12 02:34:30;;;;;;;1.27;0.40;;;;;;;24.41;48.45;101778.66;7389278;19;20014;-62
2022/07/12 02:36:57;;;;;;;1.67;0.50;;;;;;;24.38;48.32;101781.78;7385970;19;20082;-62
2022/07/12 02:39:24;;;;;;;2.00;0.50;;;;;;;24.37;48.32;101796.28;7387469;19;20015;-62
2022/07/12 02:41:51;;;;;;;0.90;0.40;;;;;;;24.34;48.61;101789.47;7387883;19;20849;-63
2022/07/12 02:44:19;;;;;;;1.42;0.45;;;;;;;24.33;48.25;101790.50;7388360;19;20010;-62
2022/07/12 02:46:46;;;;;;;3.08;0.55;;;;;;;24.33;48.30;101793.19;7386780;19;20014;-63
2022/07/12 02:49:15;;;;;;;1.58;0.40;;;;;;;24.32;48.20;101790.72;7388043;19;20021;-63
2022/07/12 02:51:42;;;;;;;0.70;0.40;;;;;;;24.32;48.38;101788.03;7387516;19;20014;-62
2022/07/12 02:54:09;;;;;;;2.60;0.40;;;;;;;24.30;49.20;101780.19;7385638;19;20491;-66
2022/07/12 02:56:36;;;;;;;3.28;0.52;;;;;;;24.29;49.42;101783.91;7384714;19;20014;-67
2022/07/12 02:59:03;;;;;;;3.17;0.40;;;;;;;24.27;49.64;101792.22;7388433;19;20016;-66
2022/07/12 03:01:30;;;;;;;1.65;0.50;;;;;;;24.29;50.17;101789.28;7388505;19;20114;-67
2022/07/12 03:03:57;;;;;;;1.15;0.50;;;;;;;24.28;50.05;101780.38;7387414;19;20023;-65
2022/07/12 03:06:24;;;;;;;1.10;0.50;;;;;;;24.26;49.88;101782.50;7386059;19;20014;-64
2022/07/12 03:08:51;;;;;;;2.30;0.40;;;;;;;24.24;50.47;101779.19;7385187;19;20503;-66
2022/07/12 03:11:18;;;;;;;1.95;0.60;;;;;;;24.18;50.20;101780.06;7388639;19;20078;-66
2022/07/12 03:13:45;;;;;;;1.08;0.40;;;;;;;24.15;50.11;101774.28;7387981;19;20074;-66
2022/07/12 03:16:11;;;;;;;2.97;0.50;;;;;;;24.12;50.67;101772.84;7387240;19;20575;-66
2022/07/12 03:18:41;;;;;;;1.17;0.50;;;;;;;24.11;52.00;101768.50;7387074;19;20542;-66
2022/07/12 03:21:08;;;;;;;1.45;0.50;;;;;;;24.08;50.84;101774.31;7384765;19;20086;-67
2022/07/12 03:23:35;;;;;;;2.53;0.60;;;;;;;24.06;51.67;101770.22;7384553;19;20679;-62
2022/07/12 03:26:02;;;;;;;1.33;0.57;;;;;;;24.04;50.85;101761.53;7386267;19;20110;-62
2022/07/12 03:28:29;;;;;;;1.45;0.57;;;;;;;24.02;51.45;101766.31;7386242;19;20019;-64
2022/07/12 03:30:56;;;;;;;0.80;0.50;;;;;;;24.01;50.88;101768.19;7383852;19;20374;-64
2022/07/12 03:33:23;;;;;;;1.83;0.50;;;;;;;23.98;51.52;101763.22;7386404;19;20371;-62
2022/07/12 03:35:58;;;;;;;1.30;0.40;;;;;;;23.98;51.19;101759.69;7385083;19;20010;-62
2022/07/12 03:38:25;;;;;;;3.28;0.55;;;;;;;23.98;51.66;101754.31;7382839;19;20097;-62
2022/07/12 03:40:52;;;;;;;1.85;0.50;;;;;;;23.98;50.90;101746.25;7384492;19;20412;-62
2022/07/12 03:43:19;;;;;;;0.75;0.35;;;;;;;23.97;51.42;101745.47;7386090;19;20699;-62
2022/07/12 03:45:46;;;;;;;2.15;0.60;;;;;;;23.95;51.23;101744.00;7384259;19;20557;-61
2022/07/12 03:48:13;;;;;;;3.00;0.95;;;;;;;23.93;51.82;101752.28;7383200;19;20020;-62
2022/07/12 03:50:40;;;;;;;2.83;0.52;;;;;;;23.91;51.42;101754.38;7384473;19;20412;-62
2022/07/12 03:53:07;;;;;;;2.25;0.50;;;;;;;23.91;51.47;101749.00;7386212;19;20018;-63
2022/07/12 03:55:34;;;;;;;1.40;0.47;;;;;;;23.90;51.46;101744.66;7383480;19;20359;-62
2022/07/12 03:58:00;;;;;;;2.28;0.77;;;;;;;23.90;51.51;101747.34;7385466;19;20014;-63
2022/07/12 04:00:27;;;;;;;1.08;0.40;;;;;;;23.90;51.59;101752.75;7384444;19;20037;-62
2022/07/12 04:02:54;;;;;;;2.55;0.50;;;;;;;23.89;51.83;101743.00;7384889;19;20018;-62
2022/07/12 04:05:25;;;;;;;1.48;0.40;;;;;;;23.88;51.35;101750.25;7382427;19;20554;-62
2022/07/12 04:07:54;;;;;;;1.25;0.40;;;;;;;23.88;51.68;101752.13;7385680;19;20547;-62
2022/07/12 04:10:21;;;;;;;1.77;0.50;;;;;;;23.84;52.11;101746.38;7383071;19;20006;-62
2022/07/12 04:12:48;;;;;;;2.03;0.50;;;;;;;23.84;52.07;101750.91;7384663;19;20010;-62
2022/07/12 04:15:16;;;;;;;4.45;0.50;;;;;;;23.86;52.84;101754.22;7385514;19;20011;-62
2022/07/12 04:17:43;;;;;;;2.25;0.43;;;;;;;23.88;51.80;101754.81;7384178;19;20494;-62
2022/07/12 04:20:11;;;;;;;2.47;0.60;;;;;;;23.88;51.62;101752.94;7382327;19;20054;-62
2022/07/12 04:22:38;;;;;;;1.17;0.47;;;;;;;23.87;51.66;101756.66;7384407;19;20062;-62
2022/07/12 04:25:06;;;;;;;1.92;0.50;;;;;;;23.84;51.63;101754.44;7383922;19;20015;-67
2022/07/12 04:27:33;;;;;;;1.75;0.40;;;;;;;23.84;51.50;101754.44;7384339;19;20010;-66
2022/07/12 04:30:00;;;;;;;1.85;0.50;;;;;;;23.83;51.70;101765.38;7385415;19;20090;-66
2022/07/12 04:32:29;;;;;;;1.67;0.50;;;;;;;23.81;52.06;101762.94;7385221;19;20663;-66
2022/07/12 04:34:56;;;;;;;1.20;0.40;;;;;;;23.82;52.13;101761.88;7384362;19;20017;-66
2022/07/12 04:37:23;;;;;;;2.63;0.40;;;;;;;23.83;51.58;101771.59;7381717;19;20025;-65
2022/07/12 04:39:50;;;;;;;0.70;0.35;;;;;;;23.83;52.13;101760.84;7373776;19;20010;-65
2022/07/12 04:42:16;;;;;;;1.48;0.52;;;;;;;23.82;52.61;101764.56;7383973;19;20081;-66
2022/07/12 04:44:43;;;;;;;3.05;2.15;;;;;;;23.80;53.08;101766.66;7384372;19;20024;-63
2022/07/12 04:47:10;;;;;;;2.03;0.70;;;;;;;23.79;52.69;101766.88;7384235;19;20415;-62
2022/07/12 04:49:38;;;;;;;4.07;0.50;;;;;;;23.78;52.49;101765.22;7383330;19;20024;-67
2022/07/12 04:52:05;;;;;;;1.25;0.40;;;;;;;23.78;53.71;101768.72;7382953;19;20018;-67
2022/07/12 04:54:32;;;;;;;1.77;0.65;;;;;;;23.80;52.96;101760.47;7379660;19;20419;-67
2022/07/12 04:56:59;;;;;;;2.88;0.50;;;;;;;23.79;52.66;101767.69;7381259;19;20118;-67
2022/07/12 04:59:26;;;;;;;1.17;0.40;;;;;;;23.79;52.73;101769.56;7383183;19;20021;-73
2022/07/12 05:01:53;;;;;;;1.77;0.50;;;;;;;23.76;53.03;101770.84;7382184;19;20006;-67
2022/07/12 05:04:20;;;;;;;2.03;0.55;;;;;;;23.74;53.63;101772.91;7383194;19;20332;-69
2022/07/12 05:06:48;;;;;;;1.80;0.35;;;;;;;23.71;53.37;101773.34;7383518;19;20011;-67
2022/07/12 05:09:15;;;;;;;1.88;0.50;;;;;;;23.72;53.69;101776.88;7381103;19;20082;-71
2022/07/12 05:11:47;;;;;;;0.82;0.40;;;;;;;23.73;53.53;101783.84;7383189;19;20014;-66
2022/07/12 05:14:13;;;;;;;1.48;0.40;;;;;;;23.73;53.41;101778.50;7383480;19;20876;-67
2022/07/12 05:16:40;;;;;;;1.65;0.50;;;;;;;23.73;53.60;101783.84;7381936;19;20074;-65
2022/07/12 05:19:07;;;;;;;1.45;0.50;;;;;;;23.73;53.92;101791.94;7379866;19;20014;-67
2022/07/12 05:21:34;;;;;;;2.40;0.43;;;;;;;23.72;54.09;101791.09;7382150;19;20422;-65
2022/07/12 05:24:03;;;;;;;0.68;0.30;;;;;;;23.71;53.99;101796.72;7380533;19;20078;-66
2022/07/12 05:26:30;;;;;;;2.65;0.40;;;;;;;23.71;54.01;101800.22;7380317;19;20015;-65
2022/07/12 05:28:58;;;;;;;2.90;0.40;;;;;;;23.73;54.79;101803.50;7381181;19;20185;-65
2022/07/12 05:31:28;;;;;;;1.92;0.60;;;;;;;23.76;55.26;101804.97;7387236;19;20002;-67
2022/07/12 05:33:55;;;;;;;3.05;0.40;;;;;;;23.75;55.45;101804.13;7389797;19;20174;-66
2022/07/12 05:36:22;;;;;;;2.35;0.50;;;;;;;23.76;55.54;101800.41;7389102;19;20017;-66
2022/07/12 05:38:49;;;;;;;3.22;0.40;;;;;;;23.73;55.36;101792.75;7384933;19;20705;-66
2022/07/12 05:41:16;;;;;;;2.00;0.45;;;;;;;23.72;56.35;101793.78;7390178;19;20031;-66
2022/07/12 05:43:43;;;;;;;1.05;0.45;;;;;;;23.73;56.63;101800.00;7388360;19;20014;-66
2022/07/12 05:46:11;;;;;;;2.47;0.60;;;;;;;23.71;57.00;101797.53;7388810;19;20383;-66
2022/07/12 05:48:39;;;;;;;2.75;0.40;;;;;;;23.71;56.41;101797.53;7388470;19;20015;-66
2022/07/12 05:53:51;;;;;;;3.28;0.60;;;;;;;23.70;57.33;101792.38;7387110;19;20030;-65
2022/07/12 05:56:18;;;;;;;5.22;0.63;;;;;;;23.71;56.84;101794.03;7388939;19;20014;-65
2022/07/12 05:58:45;;;;;;;1.50;0.50;;;;;;;23.72;56.87;101793.78;7388593;19;20014;-66
2022/07/12 06:01:11;;;;;;;1.50;0.40;;;;;;;23.73;56.88;101794.63;7389926;19;20500;-66
2022/07/12 06:03:38;;;;;;;1.75;0.52;;;;;;;23.75;57.82;101788.00;7386056;19;20110;-67
2022/07/12 06:06:05;;;;;;;1.63;0.30;;;;;;;23.75;57.65;101785.31;7388930;19;20550;-67
2022/07/12 06:08:32;;;;;;;1.00;0.50;;;;;;;23.75;57.45;101789.84;7387049;19;20034;-67
2022/07/12 06:10:59;;;;;;;2.42;0.50;;;;;;;23.74;57.89;101791.72;7388944;19;20014;-67
2022/07/12 06:13:26;;;;;;;3.58;0.70;;;;;;;23.75;58.23;101789.84;7386588;19;20013;-67
2022/07/12 06:15:53;;;;;;;4.43;0.55;;;;;;;23.74;58.15;101788.22;7387223;19;20042;-66
2022/07/12 06:18:20;;;;;;;3.28;0.50;;;;;;;23.78;58.22;101786.72;7388050;19;20017;-67
2022/07/12 06:20:47;;;;;;;2.83;0.50;;;;;;;23.85;57.86;101790.22;7387701;19;20415;-69
2022/07/12 06:23:14;;;;;;;2.65;0.60;;;;;;;23.93;57.59;101791.81;7387054;19;20034;-66
2022/07/12 06:25:41;;;;;;;2.17;0.57;;;;;;;23.97;57.64;101795.72;7387645;19;20011;-66
2022/07/12 06:28:10;;;;;;;2.25;0.47;;;;;;;24.02;57.17;101798.59;7388619;19;20027;-66
2022/07/12 06:30:37;;;;;;;4.20;0.50;;;;;;;24.07;57.72;101790.69;7387309;19;20018;-66
2022/07/12 06:33:05;;;;;;;2.30;0.50;;;;;;;24.10;57.99;101799.13;7387395;19;20010;-63
2022/07/12 06:35:33;;;;;;;3.35;0.60;;;;;;;24.12;57.85;101801.63;7384594;19;20074;-63
2022/07/12 06:38:01;;;;;;;4.57;0.77;;;;;;;24.14;57.59;101799.53;7386847;19;20019;-63
2022/07/12 06:40:28;;;;;;;2.42;0.52;;;;;;;24.16;58.04;101800.97;7383630;19;20015;-62
2022/07/12 06:43:06;;;;;;;2.88;0.50;;;;;;;24.19;58.77;101803.22;7387292;19;20042;-66
2022/07/12 06:45:44;;;;;;;1.05;0.50;;;;;;;24.21;57.99;101800.34;7388038;19;20022;-62
2022/07/12 06:48:11;;;;;;;1.27;0.40;;;;;;;24.23;57.33;101800.91;7387552;19;20020;-63
2022/07/12 06:50:38;;;;;;;3.70;0.80;;;;;;;24.21;58.01;101803.84;7386724;19;20406;-63
2022/07/12 06:53:05;;;;;;;2.17;0.60;;;;;;;24.22;57.69;101800.13;7387581;19;20093;-66
2022/07/12 06:55:32;;;;;;;4.10;0.52;;;;;;;24.23;58.47;101796.38;7386898;19;20015;-67
2022/07/12 06:57:59;;;;;;;2.05;0.60;;;;;;;24.29;58.92;101795.50;7384825;19;20014;-65
2022/07/12 07:00:26;;;;;;;2.47;0.68;;;;;;;24.33;58.33;101795.06;7383709;19;20025;-65
2022/07/12 07:02:53;;;;;;;3.10;0.75;;;;;;;24.38;58.03;101798.72;7389640;19;20018;-66
2022/07/12 07:05:20;;;;;;;1.63;0.65;;;;;;;24.42;57.40;101797.28;7385315;19;20038;-63
2022/07/12 07:07:47;;;;;;;1.40;0.40;;;;;;;24.45;57.75;101794.13;7386965;19;20024;-67
2022/07/12 07:10:14;;;;;;;1.30;0.50;;;;;;;24.48;57.40;101788.28;7384456;19;20372;-66
2022/07/12 07:12:41;;;;;;;2.55;0.50;;;;;;;24.53;57.30;101791.13;7386317;19;20685;-66
2022/07/12 07:15:09;;;;;;;2.90;0.50;;;;;;;24.58;56.55;101790.50;7386999;19;20487;-65
2022/07/12 07:17:36;;;;;;;2.38;0.57;;;;;;;24.62;56.40;101784.44;7385475;19;20010;-66
2022/07/12 07:20:03;;;;;;;3.03;0.60;;;;;;;24.74;63.46;101792.59;7385715;19;20010;-65
2022/07/12 07:22:30;;;;;;;6.68;5.13;;;;;;;24.83;66.36;101785.06;7386677;19;20082;-65
2022/07/12 07:24:59;;;;;;;3.33;0.80;;;;;;;24.86;60.21;101784.63;7383194;19;20371;-66
2022/07/12 07:27:25;;;;;;;1.50;0.40;;;;;;;24.88;57.11;101782.56;7386261;19;20475;-65
2022/07/12 07:32:38;;;;;;;3.03;0.80;;;;;;;24.97;56.10;101781.22;7386045;19;20543;-66
2022/07/12 07:35:05;;;;;;;2.60;0.90;;;;;;;25.02;55.76;101775.97;7385857;19;20387;-63
2022/07/12 07:37:33;;;;;;;2.05;0.40;;;;;;;25.10;55.36;101772.97;7385468;19;20490;-63
2022/07/12 07:40:00;;;;;;;2.72;0.63;;;;;;;25.20;55.08;101770.56;7381237;19;20734;-62
2022/07/12 07:42:28;;;;;;;5.60;0.57;;;;;;;25.27;55.17;101759.72;7382961;19;20025;-62
2022/07/12 07:44:55;;;;;;;2.10;0.70;;;;;;;25.34;55.23;101769.38;7385305;19;20019;-63
2022/07/12 07:47:47;;;;;;;1.83;0.63;;;;;;;25.41;55.09;101766.56;7386785;19;20021;-64
2022/07/12 07:50:33;;;;;;;1.92;0.63;;;;;;;25.49;56.26;101771.66;7382153;19;20018;-62
2022/07/12 07:53:01;;;;;;;1.67;0.52;;;;;;;25.53;54.70;101775.53;7384947;19;20456;-62
2022/07/12 07:55:28;;;;;;;3.10;0.68;;;;;;;25.60;55.43;101778.19;7382504;19;20014;-64
2022/07/12 07:57:55;;;;;;;3.22;0.63;;;;;;;25.65;54.69;101794.50;7381709;19;20018;-63
2022/07/12 08:00:22;;;;;;;3.58;0.50;;;;;;;25.68;54.63;101796.72;7384422;19;20010;-62
2022/07/12 08:02:49;;;;;;;5.85;0.80;;;;;;;25.75;54.22;101805.56;7384748;19;20019;-63
2022/07/12 08:05:16;;;;;;;1.23;0.40;;;;;;;25.80;54.34;101811.09;7382678;19;20013;-62
2022/07/12 08:07:43;;;;;;;2.67;0.43;;;;;;;25.85;53.99;101806.63;7384555;19;20355;-63
2022/07/12 08:10:20;;;;;;;1.88;0.40;;;;;;;25.92;53.66;101803.84;7382978;19;20038;-63
2022/07/12 08:12:47;;;;;;;2.53;0.50;;;;;;;25.98;54.13;101802.94;7385359;19;20567;-63
2022/07/12 08:15:14;;;;;;;2.63;0.60;;;;;;;26.06;56.26;101802.59;7384920;19;20424;-63
2022/07/12 08:17:41;;;;;;;3.67;0.50;;;;;;;26.12;54.17;101812.47;7384124;19;20698;-63
2022/07/12 08:20:13;;;;;;;1.55;0.52;;;;;;;26.16;54.13;101815.53;7383057;19;20114;-63
2022/07/12 08:23:00;;;;;;;2.92;0.40;;;;;;;26.19;53.43;101815.06;7385373;19;20029;-62
2022/07/12 08:25:27;;;;;;;1.83;0.40;;;;;;;26.23;52.14;101824.38;7380190;19;20039;-63
2022/07/12 08:27:54;;;;;;;1.60;0.40;;;;;;;26.25;53.09;101835.78;7384976;19;20034;-62
2022/07/12 08:30:21;;;;;;;4.15;0.50;;;;;;;26.26;52.53;101840.13;7383916;19;20053;-62
2022/07/12 08:32:48;;;;;;;2.83;0.50;;;;;;;26.25;52.00;101839.28;7384599;19;20334;-62
2022/07/12 08:35:15;;;;;;;1.58;0.40;;;;;;;26.24;52.04;101840.34;7382900;19;20019;-65
2022/07/12 08:37:42;;;;;;;1.15;0.30;;;;;;;26.24;51.45;101836.81;7381293;19;20032;-62
2022/07/12 08:40:10;;;;;;;2.92;0.40;;;;;;;26.22;50.21;101833.50;7382153;19;20011;-63
2022/07/12 08:42:42;;;;;;;5.35;0.30;;;;;;;26.20;50.97;101847.22;7383998;19;20011;-64
2022/07/12 08:45:09;;;;;;;4.90;1.23;;;;;;;26.20;50.80;101846.41;7383900;19;20406;-63
2022/07/12 08:47:37;;;;;;;3.47;0.50;;;;;;;26.18;50.82;101854.72;7385700;19;20268;-63
2022/07/12 08:50:20;;;;;;;1.10;0.30;;;;;;;26.18;50.90;101846.63;7382050;19;20015;-62
2022/07/12 08:52:49;;;;;;;3.15;0.30;;;;;;;26.17;51.04;101847.69;7383525;19;20074;-63
2022/07/12 08:55:20;;;;;;;2.15;0.43;;;;;;;26.16;51.33;101847.94;7381455;19;20010;-65
2022/07/12 08:57:49;;;;;;;3.85;0.65;;;;;;;26.13;51.43;101837.56;7382162;19;20014;-63
2022/07/12 09:00:23;;;;;;;1.65;0.40;;;;;;;26.13;51.63;101841.09;7384052;19;20654;-64
2022/07/12 09:02:52;;;;;;;2.08;0.60;;;;;;;26.13;51.92;101842.97;7384061;19;20483;-62
2022/07/12 09:05:22;;;;;;;4.50;0.45;;;;;;;26.10;51.35;101840.75;7385461;19;20010;-63
2022/07/12 09:07:50;;;;;;;19.48;2.30;;;;;;;26.10;51.04;101828.06;7391281;19;20122;-62
2022/07/12 09:10:18;;;;;;;19.92;1.50;;;;;;;26.13;51.25;101824.91;7388664;19;20030;-62
2022/07/12 09:12:45;;;;;;;8.52;0.75;;;;;;;26.19;50.95;101820.47;7388699;19;20129;-63
2022/07/12 09:15:19;;;;;;;3.50;0.45;;;;;;;26.27;51.07;101817.44;7390304;19;20380;-63
2022/07/12 09:18:13;;;;;;;;;;;;;;;26.33;50.83;101820.03;7389193;19;20367;-62
2022/07/12 09:20:42;;;;;;;1.45;0.50;;;;;;;26.39;50.77;101816.41;7388165;19;19915;-62
2022/07/12 09:23:11;;;;;;;1.38;0.45;;;;;;;26.46;50.91;101820.91;7389960;19;20354;-63
2022/07/12 09:25:43;;;;;;;1.58;0.30;;;;;;;26.48;50.64;101818.75;7388912;19;20071;-62
2022/07/12 09:28:10;;;;;;;4.32;0.52;;;;;;;26.50;50.36;101814.78;7389349;19;19999;-62
2022/07/12 09:30:50;;;;;;;1.85;0.30;;;;;;;26.53;50.31;101810.78;7389614;19;20025;-63
2022/07/12 09:36:06;;;;;;;1.35;0.50;;;;;;;26.63;49.92;101797.50;7388126;19;20014;-63
2022/07/12 09:38:34;;;;;;;2.03;0.50;;;;;;;26.71;50.06;101798.00;7383998;19;20027;-63
2022/07/12 09:41:02;;;;;;;1.20;0.30;;;;;;;26.79;49.45;101805.75;7390947;19;20018;-62
2022/07/12 09:43:30;;;;;;;1.65;0.38;;;;;;;26.90;49.46;101803.28;7389139;19;20074;-63
2022/07/12 09:45:58;;;;;;;1.02;0.30;;;;;;;26.97;48.23;101812.09;7389105;19;20044;-63
2022/07/12 09:48:29;;;;;;;1.58;0.30;;;;;;;27.04;48.53;101810.91;7388135;19;20052;-63
2022/07/12 09:50:57;;;;;;;5.20;0.30;;;;;;;27.10;47.85;101799.16;7387360;19;20014;-63
2022/07/12 09:53:28;;;;;;;2.45;0.30;;;;;;;27.17;48.48;101812.53;7387360;19;20019;-62
2022/07/12 09:55:55;;;;;;;1.60;0.25;;;;;;;27.22;48.32;101812.66;7388788;19;20007;-62
2022/07/12 09:58:34;;;;;;;1.95;0.30;;;;;;;27.23;48.63;101806.97;7385985;19;20028;-63
2022/07/12 10:01:02;;;;;;;2.05;0.30;;;;;;;27.26;48.52;101808.41;7389732;19;20452;-63
2022/07/12 10:03:31;;;;;;;2.80;0.30;;;;;;;27.31;47.88;101816.63;7388781;19;20468;-63
2022/07/12 10:06:05;;;;;;;1.98;0.30;;;;;;;27.37;48.29;101815.66;7388636;19;20439;-62
2022/07/12 10:08:31;;;;;;;1.05;0.30;;;;;;;27.44;48.17;101800.09;7385356;19;20018;-62
2022/07/12 10:10:59;;;;;;;1.50;0.35;;;;;;;27.49;48.32;101796.66;7387213;19;20010;-62
2022/07/12 10:13:26;;;;;;;2.17;0.30;;;;;;;27.52;48.72;101812.47;7386340;19;20126;-63
2022/07/12 10:16:00;;;;;;;1.63;0.40;;;;;;;27.51;47.67;101816.22;7386874;19;20582;-61
2022/07/12 10:18:29;;;;;;;1.95;0.30;;;;;;;27.57;47.70;101807.16;7386666;19;20026;-63
2022/07/12 10:20:56;;;;;;;2.33;0.30;;;;;;;27.63;47.77;101817.00;7388393;19;20014;-63
2022/07/12 10:23:26;;;;;;;2.22;0.30;;;;;;;27.74;47.20;101805.28;7386355;19;20011;-62
2022/07/12 10:25:53;;;;;;;1.13;0.50;;;;;;;27.86;47.69;101805.25;7387573;19;20011;-63
2022/07/12 10:28:20;;;;;;;1.92;0.40;;;;;;;27.99;47.09;101805.75;7387402;19;20007;-66
2022/07/12 10:30:49;;;;;;;2.35;0.40;;;;;;;28.12;47.48;101799.25;7389130;19;20118;-61
2022/07/12 10:33:16;;;;;;;2.05;0.30;;;;;;;28.17;46.74;101783.09;7389025;19;20523;-62
2022/07/12 10:36:03;;;;;;;2.78;0.35;;;;;;;28.22;46.89;101783.16;7387581;19;20011;-62
2022/07/12 10:38:36;;;;;;;2.03;0.30;;;;;;;28.24;47.18;101791.84;7384402;19;20387;-62
2022/07/12 10:41:18;;;;;;;3.58;0.47;;;;;;;28.26;47.26;101783.47;7388240;19;20014;-62
2022/07/12 10:46:33;;;;;;;2.28;0.40;;;;;;;28.33;47.74;101778.72;7387404;19;20090;-62
2022/07/12 10:49:31;;;;;;;1.77;0.30;;;;;;;28.30;47.19;101777.31;7387708;19;20018;-62
2022/07/12 10:52:10;;;;;;;2.35;0.40;;;;;;;28.31;46.91;101768.13;7385221;19;20474;-61
2022/07/12 10:54:38;;;;;;;3.75;0.40;;;;;;;28.32;47.64;101771.66;7384427;19;20070;-66
2022/07/12 10:57:06;;;;;;;1.38;0.40;;;;;;;28.32;46.97;101777.09;7385751;19;20023;-64
2022/07/12 10:59:35;;;;;;;2.50;0.40;;;;;;;28.38;46.53;101773.38;7386623;19;20087;-66
2022/07/12 11:02:03;;;;;;;1.00;0.30;;;;;;;28.46;46.54;101778.38;7387517;19;20316;-65
2022/07/12 11:04:47;;;;;;;2.75;0.40;;;;;;;28.55;46.54;101776.88;7385904;19;20019;-65
2022/07/12 11:07:18;;;;;;;2.13;0.40;;;;;;;28.64;46.12;101775.41;7387298;19;20014;-66
2022/07/12 11:09:45;;;;;;;1.80;0.80;;;;;;;28.71;45.85;101767.09;7384602;19;20037;-67
2022/07/12 11:12:14;;;;;;;2.90;0.40;;;;;;;28.71;46.13;101772.50;7385196;19;20348;-67
2022/07/12 11:14:45;;;;;;;1.75;0.30;;;;;;;28.70;45.72;101770.88;7385984;19;20038;-67
2022/07/12 11:17:12;;;;;;;3.28;0.63;;;;;;;28.72;45.78;101769.59;7384486;19;20014;-66
2022/07/12 11:19:39;;;;;;;2.97;0.70;;;;;;;28.70;44.71;101768.97;7383850;19;20022;-65
2022/07/12 11:22:06;;;;;;;2.08;0.40;;;;;;;28.72;44.48;101763.34;7386420;19;20694;-67
2022/07/12 11:24:35;;;;;;;1.50;0.30;;;;;;;28.74;44.41;101767.44;7382360;19;20022;-65
2022/07/12 11:27:04;;;;;;;0.45;0.22;;;;;;;28.77;44.92;101758.81;7384850;19;20034;-65
2022/07/12 11:29:32;;;;;;;4.47;0.30;;;;;;;28.79;44.20;101753.16;7384215;19;20311;-65
2022/07/12 11:32:00;;;;;;;1.90;0.35;;;;;;;28.81;44.13;101753.69;7383889;19;20376;-66
2022/07/12 11:34:35;;;;;;;3.78;0.30;;;;;;;28.82;44.48;101755.34;7386253;19;20446;-66
2022/07/12 11:37:02;;;;;;;1.45;0.30;;;;;;;28.85;44.39;101754.84;7383291;19;20023;-66
2022/07/12 11:39:40;;;;;;;2.80;0.40;;;;;;;28.88;43.96;101754.34;7382766;19;20034;-65
2022/07/12 11:42:09;;;;;;;2.45;0.63;;;;;;;28.92;43.53;101756.28;7384671;19;20679;-67